createdAt,value
2023-09-09T00:00:08.832Z,98290.90
2023-09-09T00:03:00.362Z,98288.45
2023-09-09T00:05:36.773Z,98285.45
2023-09-09T00:08:05.474Z,98286.20
2023-09-09T00:10:38.317Z,98284.67
2023-09-09T00:13:08.025Z,98285.05
2023-09-09T00:15:36.594Z,98286.20
2023-09-09T00:18:05.292Z,98285.67
2023-09-09T00:20:35.714Z,98288.58
2023-09-09T00:23:11.110Z,98287.58
2023-09-09T00:25:43.022Z,98286.89
2023-09-09T00:28:12.837Z,98285.11
2023-09-09T00:30:41.890Z,98283.18
2023-09-09T00:33:10.098Z,98284.71
2023-09-09T00:35:41.239Z,98286.95
2023-09-09T00:38:12.409Z,98284.56
2023-09-09T00:40:48.573Z,98281.12
2023-09-09T00:43:16.760Z,98280.12
2023-09-09T00:45:47.173Z,98279.42
2023-09-09T00:48:15.558Z,98280.19
2023-09-09T00:50:43.967Z,98280.02
2023-09-09T00:53:12.380Z,98280.26
2023-09-09T00:55:42.165Z,98281.55
2023-09-09T00:58:11.769Z,98279.24
2023-09-09T01:00:39.977Z,98274.15
2023-09-09T01:03:10.852Z,98273.92
2023-09-09T01:05:39.817Z,98272.94
2023-09-09T01:08:08.083Z,98273.23
2023-09-09T01:10:36.502Z,98275.77
2023-09-09T01:13:04.771Z,98275.38
2023-09-09T01:15:33.165Z,98279.22
2023-09-09T01:18:02.309Z,98275.06
2023-09-09T01:20:37.102Z,98274.91
2023-09-09T01:23:05.437Z,98273.45
2023-09-09T01:25:33.887Z,98275.83
2023-09-09T01:28:02.480Z,98279.12
2023-09-09T01:30:30.814Z,98277.11
2023-09-09T01:32:59.148Z,98274.73
2023-09-09T01:35:27.417Z,98271.88
2023-09-09T01:37:55.792Z,98265.65
2023-09-09T01:40:24.942Z,98267.32
2023-09-09T01:42:53.235Z,98266.74
2023-09-09T01:45:21.446Z,98262.73
2023-09-09T01:47:49.896Z,98261.97
2023-09-09T01:50:18.156Z,98260.65
2023-09-09T01:52:47.359Z,98263.80
2023-09-09T01:55:17.821Z,98263.11
2023-09-09T01:57:47.590Z,98262.86
2023-09-09T02:00:16.724Z,98262.08
2023-09-09T02:02:44.886Z,98260.30
2023-09-09T02:05:13.239Z,98259.28
2023-09-09T02:07:41.672Z,98261.04
2023-09-09T02:10:13.301Z,98261.25
2023-09-09T02:12:42.868Z,98261.23
2023-09-09T02:15:12.472Z,98258.67
2023-09-09T02:17:41.142Z,98256.98
2023-09-09T02:20:11.048Z,98256.41
2023-09-09T02:22:39.870Z,98253.33
2023-09-09T02:25:09.600Z,98256.17
2023-09-09T02:27:38.000Z,98256.23
2023-09-09T02:30:08.471Z,98254.23
2023-09-09T02:32:37.047Z,98257.37
2023-09-09T02:35:05.630Z,98257.48
2023-09-09T02:37:33.766Z,98257.34
2023-09-09T02:40:02.326Z,98258.55
2023-09-09T02:42:30.672Z,98256.00
2023-09-09T02:44:59.651Z,98251.92
2023-09-09T02:47:28.244Z,98252.77
2023-09-09T02:49:56.696Z,98250.85
2023-09-09T02:52:25.571Z,98247.93
2023-09-09T02:54:54.150Z,98249.86
2023-09-09T02:57:22.821Z,98252.23
2023-09-09T02:59:52.357Z,98251.92
2023-09-09T03:02:20.639Z,98249.00
2023-09-09T03:04:49.094Z,98248.08
2023-09-09T03:07:17.281Z,98246.98
2023-09-09T03:09:46.946Z,98249.64
2023-09-09T03:12:21.986Z,98254.84
2023-09-09T03:14:50.404Z,98249.89
2023-09-09T03:17:19.896Z,98246.73
2023-09-09T03:19:48.589Z,98252.33
2023-09-09T03:22:17.116Z,98249.70
2023-09-09T03:24:45.439Z,98253.00
2023-09-09T03:27:13.590Z,98253.77
2023-09-09T03:29:41.915Z,98252.69
2023-09-09T03:32:10.163Z,98249.84
2023-09-09T03:34:40.212Z,98244.98
2023-09-09T03:37:08.786Z,98244.27
2023-09-09T03:39:37.103Z,98244.95
2023-09-09T03:42:05.526Z,98245.09
2023-09-09T03:44:33.970Z,98242.70
2023-09-09T03:47:02.246Z,98245.36
2023-09-09T03:49:30.562Z,98245.66
2023-09-09T03:52:01.157Z,98247.64
2023-09-09T03:54:29.405Z,98249.16
2023-09-09T03:56:58.363Z,98245.61
2023-09-09T03:59:30.742Z,98245.06
2023-09-09T04:01:59.464Z,98246.83
2023-09-09T04:04:28.087Z,98247.52
2023-09-09T04:06:56.587Z,98248.44
2023-09-09T04:09:27.833Z,98248.81
2023-09-09T04:11:57.175Z,98252.72
2023-09-09T04:14:25.611Z,98252.04
2023-09-09T04:16:53.877Z,98256.30
2023-09-09T04:19:22.428Z,98254.10
2023-09-09T04:21:52.880Z,98253.53
2023-09-09T04:24:21.943Z,98258.55
2023-09-09T04:26:50.231Z,98261.65
2023-09-09T04:29:18.441Z,98263.23
2023-09-09T04:31:48.221Z,98263.21
2023-09-09T04:34:16.718Z,98264.80
2023-09-09T04:36:46.724Z,98260.88
2023-09-09T04:39:17.606Z,98264.40
2023-09-09T04:41:46.854Z,98262.84
2023-09-09T04:44:15.727Z,98263.56
2023-09-09T04:46:44.071Z,98261.85
2023-09-09T04:49:13.213Z,98261.90
2023-09-09T04:51:41.558Z,98260.81
2023-09-09T04:54:09.829Z,98259.00
2023-09-09T04:56:38.212Z,98258.02
2023-09-09T04:59:06.606Z,98260.27
2023-09-09T05:01:34.990Z,98260.05
2023-09-09T05:04:03.245Z,98259.29
2023-09-09T05:06:31.964Z,98258.73
2023-09-09T05:09:00.261Z,98258.73
2023-09-09T05:11:28.464Z,98257.63
2023-09-09T05:13:56.937Z,98259.66
2023-09-09T05:16:25.499Z,98259.09
2023-09-09T05:18:54.228Z,98255.55
2023-09-09T05:21:22.448Z,98255.52
2023-09-09T05:23:51.624Z,98259.53
2023-09-09T05:26:20.424Z,98263.59
2023-09-09T05:28:48.748Z,98259.84
2023-09-09T05:31:17.694Z,98256.86
2023-09-09T05:33:47.128Z,98259.02
2023-09-09T05:36:16.285Z,98256.44
2023-09-09T05:38:44.398Z,98254.69
2023-09-09T05:41:12.615Z,98257.46
2023-09-09T05:43:40.883Z,98262.34
2023-09-09T05:46:09.940Z,98257.86
2023-09-09T05:48:38.626Z,98257.25
2023-09-09T05:51:06.801Z,98258.81
2023-09-09T05:53:35.841Z,98259.79
2023-09-09T05:56:04.773Z,98262.83
2023-09-09T05:58:33.450Z,98260.73
2023-09-09T06:01:01.602Z,98259.46
2023-09-09T06:03:31.333Z,98263.12
2023-09-09T06:05:59.793Z,98264.61
2023-09-09T06:08:30.052Z,98268.68
2023-09-09T06:10:58.708Z,98272.14
2023-09-09T06:13:27.932Z,98274.96
2023-09-09T06:15:56.873Z,98273.71
2023-09-09T06:18:28.715Z,98273.59
2023-09-09T06:21:00.669Z,98274.90
2023-09-09T06:23:29.451Z,98277.18
2023-09-09T06:25:59.361Z,98280.04
2023-09-09T06:28:29.178Z,98280.44
2023-09-09T06:31:00.860Z,98284.48
2023-09-09T06:33:45.635Z,98282.24
2023-09-09T06:36:23.318Z,98281.60
2023-09-09T06:38:58.741Z,98282.35
2023-09-09T06:42:06.305Z,98281.98
2023-09-09T06:44:35.513Z,98279.80
2023-09-09T06:47:06.348Z,98282.33
2023-09-09T06:49:36.567Z,98286.38
2023-09-09T06:52:05.118Z,98285.76
2023-09-09T06:54:33.380Z,98286.83
2023-09-09T06:57:01.678Z,98284.65
2023-09-09T06:59:30.181Z,98283.40
2023-09-09T07:01:58.451Z,98284.95
2023-09-09T07:04:26.689Z,98283.31
2023-09-09T07:07:11.558Z,98283.70
2023-09-09T07:09:40.949Z,98287.81
2023-09-09T07:12:13.101Z,98289.27
2023-09-09T07:14:42.369Z,98289.19
2023-09-09T07:17:11.374Z,98283.16
2023-09-09T07:19:39.511Z,98284.11
2023-09-09T07:22:08.089Z,98286.58
2023-09-09T07:24:36.334Z,98284.67
2023-09-09T07:27:04.955Z,98282.95
2023-09-09T07:29:33.423Z,98280.09
2023-09-09T07:32:01.734Z,98279.01
2023-09-09T07:34:30.148Z,98275.11
2023-09-09T07:36:58.401Z,98277.35
2023-09-09T07:39:29.196Z,98272.18
2023-09-09T07:41:57.451Z,98266.48
2023-09-09T07:44:25.862Z,98262.52
2023-09-09T07:46:54.197Z,98259.27
2023-09-09T07:49:23.111Z,98259.32
2023-09-09T07:51:51.422Z,98261.67
2023-09-09T07:54:19.633Z,98257.64
2023-09-09T07:56:48.039Z,98258.85
2023-09-09T07:59:16.219Z,98254.28
2023-09-09T08:01:45.755Z,98254.45
2023-09-09T08:04:14.977Z,98254.59
2023-09-09T08:06:43.364Z,98250.66
2023-09-09T08:09:11.617Z,98251.09
2023-09-09T08:11:40.091Z,98244.81
2023-09-09T08:14:08.346Z,98245.51
2023-09-09T08:16:36.646Z,98244.65
2023-09-09T08:19:05.027Z,98241.59
2023-09-09T08:21:33.404Z,98241.06
2023-09-09T08:24:02.085Z,98238.20
2023-09-09T08:26:31.143Z,98237.92
2023-09-09T08:28:59.541Z,98237.27
2023-09-09T08:31:27.913Z,98235.91
2023-09-09T08:33:56.216Z,98235.21
2023-09-09T08:36:24.484Z,98231.42
2023-09-09T08:38:58.120Z,98231.23
2023-09-09T08:41:48.134Z,98228.49
2023-09-09T08:44:23.133Z,98226.15
2023-09-09T08:46:51.426Z,98225.09
2023-09-09T08:49:24.047Z,98223.29
2023-09-09T08:52:02.301Z,98221.98
2023-09-09T08:54:31.439Z,98216.92
2023-09-09T08:57:02.722Z,98215.70
2023-09-09T08:59:33.172Z,98213.89
2023-09-09T09:02:03.450Z,98212.65
2023-09-09T09:04:35.137Z,98211.38
2023-09-09T09:07:04.473Z,98210.05
2023-09-09T09:09:33.117Z,98209.82
2023-09-09T09:12:03.100Z,98210.04
2023-09-09T09:14:31.671Z,98210.74
2023-09-09T09:17:00.743Z,98208.80
2023-09-09T09:19:31.972Z,98206.67
2023-09-09T09:22:00.907Z,98202.40
2023-09-09T09:24:29.688Z,98203.17
2023-09-09T09:26:58.112Z,98202.50
2023-09-09T09:29:39.310Z,98197.70
2023-09-09T09:32:09.729Z,98193.17
2023-09-09T09:34:38.319Z,98196.20
2023-09-09T09:37:14.211Z,98195.38
2023-09-09T09:39:44.548Z,98192.96
2023-09-09T09:42:14.378Z,98195.77
2023-09-09T09:44:42.736Z,98197.17
2023-09-09T09:47:12.415Z,98200.65
2023-09-09T09:49:45.832Z,98204.14
2023-09-09T09:52:24.690Z,98201.34
2023-09-09T09:54:54.459Z,98201.17
2023-09-09T09:57:23.963Z,98201.00
2023-09-09T09:59:52.300Z,98200.36
2023-09-09T10:02:22.224Z,98198.15
2023-09-09T10:04:52.833Z,98195.41
2023-09-09T10:07:25.056Z,98195.59
2023-09-09T10:10:10.433Z,98191.53
2023-09-09T10:12:49.208Z,98187.55
2023-09-09T10:15:19.766Z,98188.59
2023-09-09T10:17:52.062Z,98184.67
2023-09-09T10:20:20.768Z,98179.58
2023-09-09T10:22:50.546Z,98174.84
2023-09-09T10:25:19.085Z,98168.91
2023-09-09T10:27:48.366Z,98167.80
2023-09-09T10:30:18.567Z,98168.52
2023-09-09T10:32:48.190Z,98168.70
2023-09-09T10:35:19.006Z,98162.56
2023-09-09T10:37:50.030Z,98160.04
2023-09-09T10:40:19.197Z,98159.21
2023-09-09T10:42:48.705Z,98158.23
2023-09-09T10:45:24.176Z,98160.90
2023-09-09T10:48:12.827Z,98158.41
2023-09-09T10:50:42.088Z,98158.66
2023-09-09T10:53:21.707Z,98158.50
2023-09-09T10:55:55.346Z,98155.83
2023-09-09T10:58:33.519Z,98148.91
2023-09-09T11:01:02.567Z,98147.14
2023-09-09T11:03:46.702Z,98145.33
2023-09-09T11:06:26.225Z,98144.21
2023-09-09T11:09:01.475Z,98139.38
2023-09-09T11:11:35.193Z,98140.23
2023-09-09T11:14:05.596Z,98135.23
2023-09-09T11:16:36.199Z,98135.31
2023-09-09T11:19:12.086Z,98133.45
2023-09-09T11:21:54.108Z,98124.67
2023-09-09T11:24:22.388Z,98122.88
2023-09-09T11:26:56.973Z,98122.56
2023-09-09T11:29:36.356Z,98121.31
2023-09-09T11:32:10.940Z,98119.09
2023-09-09T11:34:39.637Z,98112.63
2023-09-09T11:37:08.016Z,98113.60
2023-09-09T11:39:43.381Z,98112.43
2023-09-09T11:42:12.214Z,98112.75
2023-09-09T11:44:42.919Z,98102.30
2023-09-09T11:47:11.734Z,98102.63
2023-09-09T11:49:40.663Z,98098.52
2023-09-09T11:52:09.187Z,98098.86
2023-09-09T11:54:37.668Z,98094.13
2023-09-09T11:57:10.812Z,98090.14
2023-09-09T11:59:45.881Z,98089.74
2023-09-09T12:02:22.655Z,98090.33
2023-09-09T12:05:02.453Z,98089.85
2023-09-09T12:07:34.072Z,98083.20
2023-09-09T12:10:05.728Z,98083.38
2023-09-09T12:12:34.696Z,98082.98
2023-09-09T12:15:04.901Z,98078.23
2023-09-09T12:17:33.657Z,98078.96
2023-09-09T12:20:09.558Z,98084.20
2023-09-09T12:22:54.219Z,98085.35
2023-09-09T12:25:36.481Z,98084.89
2023-09-09T12:28:05.408Z,98082.48
2023-09-09T12:30:34.767Z,98078.09
2023-09-09T12:33:15.984Z,98069.70
2023-09-09T12:35:46.665Z,98070.94
2023-09-09T12:38:16.392Z,98069.98
2023-09-09T12:40:49.702Z,98073.41
2023-09-09T12:43:22.969Z,98071.56
2023-09-09T12:45:57.289Z,98070.85
2023-09-09T12:48:25.730Z,98071.02
2023-09-09T12:50:53.978Z,98065.58
2023-09-09T12:53:22.982Z,98062.86
2023-09-09T12:55:51.149Z,98057.98
2023-09-09T12:58:19.341Z,98056.73
2023-09-09T13:00:47.571Z,98058.70
2023-09-09T13:03:15.924Z,98059.33
2023-09-09T13:05:44.327Z,98051.90
2023-09-09T13:08:12.495Z,98049.30
2023-09-09T13:10:40.841Z,98045.89
2023-09-09T13:13:09.185Z,98045.92
2023-09-09T13:15:37.536Z,98043.66
2023-09-09T13:18:05.816Z,98043.23
2023-09-09T13:20:34.186Z,98045.91
2023-09-09T13:23:03.208Z,98044.50
2023-09-09T13:25:31.568Z,98041.85
2023-09-09T13:28:00.725Z,98042.35
2023-09-09T13:30:28.907Z,98042.55
2023-09-09T13:32:57.453Z,98042.08
2023-09-09T13:35:26.029Z,98042.58
2023-09-09T13:37:54.309Z,98042.52
2023-09-09T13:40:22.792Z,98045.66
2023-09-09T13:42:51.113Z,98046.16
2023-09-09T13:45:19.570Z,98042.77
2023-09-09T13:47:47.923Z,98040.83
2023-09-09T13:50:16.204Z,98038.00
2023-09-09T13:52:44.708Z,98038.81
2023-09-09T13:55:13.147Z,98037.48
2023-09-09T13:57:41.392Z,98038.06
2023-09-09T14:00:10.167Z,98042.04
2023-09-09T14:02:38.929Z,98035.36
2023-09-09T14:05:07.821Z,98037.96
2023-09-09T14:07:36.088Z,98034.43
2023-09-09T14:10:04.589Z,98039.02
2023-09-09T14:12:32.920Z,98042.85
2023-09-09T14:15:01.150Z,98039.77
2023-09-09T14:17:29.507Z,98042.56
2023-09-09T14:19:57.688Z,98037.77
2023-09-09T14:22:26.084Z,98035.48
2023-09-09T14:24:54.368Z,98033.95
2023-09-09T14:27:22.675Z,98035.63
2023-09-09T14:29:51.319Z,98035.59
2023-09-09T14:32:19.767Z,98034.71
2023-09-09T14:34:48.496Z,98038.01
2023-09-09T14:37:17.413Z,98035.17
2023-09-09T14:39:45.819Z,98035.02
2023-09-09T14:42:14.015Z,98033.81
2023-09-09T14:44:44.140Z,98029.99
2023-09-09T14:47:13.236Z,98031.91
2023-09-09T14:49:41.736Z,98031.77
2023-09-09T14:52:11.461Z,98033.50
2023-09-09T14:54:39.746Z,98032.67
2023-09-09T14:57:08.137Z,98030.70
2023-09-09T14:59:37.298Z,98033.93
2023-09-09T15:02:05.759Z,98035.33
2023-09-09T15:04:34.607Z,98033.73
2023-09-09T15:07:03.076Z,98031.66
2023-09-09T15:09:31.444Z,98032.00
2023-09-09T15:11:59.786Z,98035.80
2023-09-09T15:14:28.081Z,98034.58
2023-09-09T15:16:58.063Z,98029.36
2023-09-09T15:19:26.363Z,98031.67
2023-09-09T15:21:55.667Z,98032.05
2023-09-09T15:24:24.148Z,98031.77
2023-09-09T15:26:52.457Z,98029.18
2023-09-09T15:29:20.832Z,98028.17
2023-09-09T15:31:49.121Z,98030.38
2023-09-09T15:34:18.681Z,98033.29
2023-09-09T15:36:46.954Z,98033.06
2023-09-09T15:39:15.770Z,98031.60
2023-09-09T15:41:44.100Z,98032.77
2023-09-09T15:44:12.465Z,98031.98
2023-09-09T15:46:41.097Z,98032.70
2023-09-09T15:49:09.567Z,98033.84
2023-09-09T15:51:40.117Z,98034.05
2023-09-09T15:54:08.364Z,98035.29
2023-09-09T15:56:37.033Z,98033.74
2023-09-09T15:59:05.417Z,98037.63
2023-09-09T16:01:34.504Z,98041.79
2023-09-09T16:04:03.261Z,98045.73
2023-09-09T16:06:34.006Z,98044.80
2023-09-09T16:09:03.691Z,98044.25
2023-09-09T16:11:31.888Z,98042.07
2023-09-09T16:14:00.202Z,98041.21
2023-09-09T16:16:28.622Z,98041.93
2023-09-09T16:18:57.022Z,98046.42
2023-09-09T16:21:25.389Z,98043.46
2023-09-09T16:23:53.614Z,98043.84
2023-09-09T16:26:22.013Z,98044.95
2023-09-09T16:28:50.221Z,98047.36
2023-09-09T16:31:19.286Z,98046.55
2023-09-09T16:33:47.967Z,98047.70
2023-09-09T16:36:17.614Z,98049.34
2023-09-09T16:38:45.860Z,98056.19
2023-09-09T16:41:14.332Z,98059.47
2023-09-09T16:43:42.616Z,98056.02
2023-09-09T16:46:11.100Z,98053.02
2023-09-09T16:48:40.835Z,98053.50
2023-09-09T16:51:11.318Z,98054.23
2023-09-09T16:53:41.756Z,98053.98
2023-09-09T16:56:10.267Z,98054.69
2023-09-09T16:58:39.373Z,98056.45
2023-09-09T17:01:07.981Z,98058.94
2023-09-09T17:03:36.495Z,98059.05
2023-09-09T17:06:05.027Z,98062.29
2023-09-09T17:08:33.496Z,98066.42
2023-09-09T17:11:05.348Z,98065.13
2023-09-09T17:13:33.797Z,98067.42
2023-09-09T17:16:05.043Z,98067.02
2023-09-09T17:18:33.480Z,98070.20
2023-09-09T17:21:02.244Z,98073.05
2023-09-09T17:23:30.785Z,98074.15
2023-09-09T17:26:00.801Z,98076.58
2023-09-09T17:28:30.259Z,98079.91
2023-09-09T17:30:58.920Z,98079.34
2023-09-09T17:33:27.404Z,98084.52
2023-09-09T17:35:56.705Z,98090.84
2023-09-09T17:38:25.383Z,98092.59
2023-09-09T17:40:54.194Z,98097.98
2023-09-09T17:43:23.190Z,98102.04
2023-09-09T17:45:52.350Z,98102.52
2023-09-09T17:48:21.586Z,98103.65
2023-09-09T17:50:50.584Z,98104.16
2023-09-09T17:53:19.434Z,98109.57
2023-09-09T17:55:47.997Z,98111.08
2023-09-09T17:58:16.573Z,98114.04
2023-09-09T18:00:44.987Z,98119.73
2023-09-09T18:03:13.462Z,98120.29
2023-09-09T18:05:43.027Z,98120.96
2023-09-09T18:08:12.417Z,98122.70
2023-09-09T18:10:42.392Z,98122.60
2023-09-09T18:13:11.009Z,98127.45
2023-09-09T18:15:42.159Z,98130.26
2023-09-09T18:18:11.616Z,98130.45
2023-09-09T18:20:40.013Z,98135.52
2023-09-09T18:23:09.311Z,98138.31
2023-09-09T18:25:39.291Z,98139.25
2023-09-09T18:28:08.499Z,98143.23
2023-09-09T18:30:43.901Z,98144.70
2023-09-09T18:33:13.052Z,98141.77
2023-09-09T18:35:44.487Z,98140.91
2023-09-09T18:38:14.970Z,98143.83
2023-09-09T18:40:43.341Z,98148.20
2023-09-09T18:43:11.853Z,98143.90
2023-09-09T18:45:41.599Z,98146.55
2023-09-09T18:48:09.977Z,98147.75
2023-09-09T18:50:39.293Z,98148.33
2023-09-09T18:53:08.573Z,98151.29
2023-09-09T18:55:37.034Z,98159.80
2023-09-09T18:58:06.137Z,98162.40
2023-09-09T19:00:35.371Z,98162.49
2023-09-09T19:03:04.379Z,98162.24
2023-09-09T19:05:34.520Z,98161.23
2023-09-09T19:08:03.934Z,98160.02
2023-09-09T19:10:32.392Z,98161.73
2023-09-09T19:13:00.868Z,98163.40
2023-09-09T19:15:29.669Z,98170.18
2023-09-09T19:17:58.424Z,98174.17
2023-09-09T19:20:28.452Z,98174.44
2023-09-09T19:23:01.055Z,98176.19
2023-09-09T19:25:30.540Z,98183.40
2023-09-09T19:28:00.863Z,98182.70
2023-09-09T19:30:29.414Z,98181.20
2023-09-09T19:32:57.853Z,98177.60
2023-09-09T19:35:26.450Z,98180.33
2023-09-09T19:37:58.895Z,98181.02
2023-09-09T19:40:27.746Z,98177.90
2023-09-09T19:42:56.423Z,98176.48
2023-09-09T19:45:25.513Z,98179.94
2023-09-09T19:47:54.879Z,98180.32
2023-09-09T19:50:23.665Z,98182.59
2023-09-09T19:52:52.203Z,98184.33
2023-09-09T19:55:20.865Z,98181.49
2023-09-09T19:57:49.706Z,98181.60
2023-09-09T20:00:18.212Z,98186.41
2023-09-09T20:02:46.865Z,98184.25
2023-09-09T20:05:17.570Z,98188.06
2023-09-09T20:07:46.605Z,98188.71
2023-09-09T20:10:15.274Z,98189.67
2023-09-09T20:12:44.877Z,98191.73
2023-09-09T20:15:14.740Z,98191.92
2023-09-09T20:17:44.002Z,98195.88
2023-09-09T20:20:15.279Z,98193.89
2023-09-09T20:22:43.944Z,98192.00
2023-09-09T20:25:12.706Z,98192.73
2023-09-09T20:27:43.700Z,98192.31
2023-09-09T20:30:13.288Z,98190.17
2023-09-09T20:32:41.886Z,98188.77
2023-09-09T20:35:31.273Z,98188.23
2023-09-09T20:38:00.853Z,98190.99
2023-09-09T20:40:31.544Z,98190.55
2023-09-09T20:43:02.112Z,98189.86
2023-09-09T20:45:30.838Z,98194.52
2023-09-09T20:47:59.974Z,98200.02
2023-09-09T20:50:34.850Z,98197.42
2023-09-09T20:53:03.548Z,98201.52
2023-09-09T20:55:41.037Z,98204.17
2023-09-09T20:58:15.878Z,98205.81
2023-09-09T21:00:44.221Z,98206.68
2023-09-09T21:03:13.482Z,98205.88
2023-09-09T21:05:42.061Z,98206.80
2023-09-09T21:08:11.062Z,98208.33
2023-09-09T21:10:39.527Z,98210.97
2023-09-09T21:13:10.237Z,98212.35
2023-09-09T21:15:38.465Z,98214.94
2023-09-09T21:18:07.164Z,98213.14
2023-09-09T21:20:35.516Z,98222.16
2023-09-09T21:23:04.756Z,98224.23
2023-09-09T21:25:35.184Z,98222.20
2023-09-09T21:28:05.482Z,98219.44
2023-09-09T21:30:34.477Z,98215.67
2023-09-09T21:33:04.100Z,98218.58
2023-09-09T21:35:32.868Z,98223.21
2023-09-09T21:38:01.284Z,98228.38
2023-09-09T21:40:29.680Z,98229.52
2023-09-09T21:42:58.917Z,98227.58
2023-09-09T21:45:27.498Z,98231.06
2023-09-09T21:47:55.715Z,98232.24
2023-09-09T21:50:25.874Z,98232.02
2023-09-09T21:52:54.284Z,98228.36
2023-09-09T21:55:22.782Z,98230.14
2023-09-09T21:57:51.178Z,98236.21
2023-09-09T22:00:24.621Z,98237.36
2023-09-09T22:02:54.529Z,98235.81
2023-09-09T22:05:22.925Z,98240.73
2023-09-09T22:07:51.592Z,98239.33
2023-09-09T22:10:20.831Z,98238.75
2023-09-09T22:12:49.195Z,98235.23
2023-09-09T22:15:18.173Z,98229.80
2023-09-09T22:17:46.987Z,98230.52
2023-09-09T22:20:17.018Z,98236.58
2023-09-09T22:22:45.599Z,98237.59
2023-09-09T22:25:15.698Z,98240.77
2023-09-09T22:27:43.973Z,98238.62
2023-09-09T22:30:13.862Z,98241.66
2023-09-09T22:32:42.358Z,98241.52
2023-09-09T22:35:12.309Z,98246.41
2023-09-09T22:37:40.925Z,98245.13
2023-09-09T22:40:10.990Z,98244.76
2023-09-09T22:42:39.478Z,98242.08
2023-09-09T22:45:08.717Z,98243.42
2023-09-09T22:47:38.810Z,98242.23
2023-09-09T22:50:08.099Z,98246.26
2023-09-09T22:52:37.931Z,98244.13
2023-09-09T22:55:06.793Z,98240.61
2023-09-09T22:57:35.987Z,98236.70
2023-09-09T23:00:07.487Z,98238.27
2023-09-09T23:02:35.863Z,98235.98
2023-09-09T23:05:05.634Z,98236.00
2023-09-09T23:07:49.877Z,98237.55
2023-09-09T23:10:20.744Z,98248.97
2023-09-09T23:12:49.280Z,98246.92
2023-09-09T23:15:18.775Z,98244.39
2023-09-09T23:17:47.304Z,98250.27
2023-09-09T23:20:17.796Z,98248.88
2023-09-09T23:22:46.257Z,98248.05
2023-09-09T23:25:16.056Z,98248.14
2023-09-09T23:27:45.367Z,98249.55
2023-09-09T23:30:14.699Z,98245.56
2023-09-09T23:32:43.159Z,98243.80
2023-09-09T23:35:12.515Z,98241.50
2023-09-09T23:37:41.130Z,98244.98
2023-09-09T23:40:10.305Z,98243.69
2023-09-09T23:42:39.310Z,98241.69
2023-09-09T23:45:08.403Z,98239.45
2023-09-09T23:47:36.993Z,98236.71
2023-09-09T23:50:05.624Z,98237.63
2023-09-09T23:52:34.810Z,98241.64
2023-09-09T23:55:04.653Z,98243.73
2023-09-09T23:57:32.991Z,98245.20
